sensor_id;sensor_type;location;lat;lon;timestamp;P1;durP1;ratioP1;P2;durP2;ratioP2
69334;SDS011;56477;52.742;15.242;2023-12-20T00:01:40;7.72;;;3.15;;
69334;SDS011;56477;52.742;15.242;2023-12-20T00:04:06;11.15;;;4.35;;
69334;SDS011;56477;52.742;15.242;2023-12-20T00:06:32;10.25;;;3.85;;
69334;SDS011;56477;52.742;15.242;2023-12-20T00:08:58;14.53;;;5.77;;
69334;SDS011;56477;52.742;15.242;2023-12-20T00:11:24;10.75;;;3.70;;
69334;SDS011;56477;52.742;15.242;2023-12-20T00:13:50;12.52;;;4.55;;
69334;SDS011;56477;52.742;15.242;2023-12-20T00:16:17;13.57;;;5.25;;
69334;SDS011;56477;52.742;15.242;2023-12-20T00:18:43;8.40;;;3.93;;
69334;SDS011;56477;52.742;15.242;2023-12-20T00:21:09;12.82;;;4.43;;
69334;SDS011;56477;52.742;15.242;2023-12-20T00:23:38;9.32;;;3.67;;
69334;SDS011;56477;52.742;15.242;2023-12-20T00:26:04;11.90;;;4.63;;
69334;SDS011;56477;52.742;15.242;2023-12-20T00:28:30;9.05;;;3.80;;
69334;SDS011;56477;52.742;15.242;2023-12-20T00:30:56;9.50;;;3.93;;
69334;SDS011;56477;52.742;15.242;2023-12-20T00:33:22;11.85;;;4.45;;
69334;SDS011;56477;52.742;15.242;2023-12-20T00:35:48;9.68;;;3.65;;
69334;SDS011;56477;52.742;15.242;2023-12-20T00:38:14;9.52;;;3.92;;
69334;SDS011;56477;52.742;15.242;2023-12-20T00:40:40;12.00;;;4.50;;
69334;SDS011;56477;52.742;15.242;2023-12-20T00:43:06;7.65;;;2.92;;
69334;SDS011;56477;52.742;15.242;2023-12-20T00:45:32;12.40;;;4.47;;
69334;SDS011;56477;52.742;15.242;2023-12-20T00:47:58;14.77;;;5.83;;
69334;SDS011;56477;52.742;15.242;2023-12-20T00:50:25;13.80;;;5.00;;
69334;SDS011;56477;52.742;15.242;2023-12-20T00:52:50;11.55;;;5.78;;
69334;SDS011;56477;52.742;15.242;2023-12-20T00:55:17;12.43;;;6.05;;
69334;SDS011;56477;52.742;15.242;2023-12-20T00:57:42;7.77;;;3.60;;
69334;SDS011;56477;52.742;15.242;2023-12-20T01:00:09;9.85;;;4.43;;
69334;SDS011;56477;52.742;15.242;2023-12-20T01:02:35;15.27;;;7.85;;
69334;SDS011;56477;52.742;15.242;2023-12-20T01:05:01;10.43;;;5.00;;
69334;SDS011;56477;52.742;15.242;2023-12-20T01:07:28;10.90;;;4.28;;
69334;SDS011;56477;52.742;15.242;2023-12-20T01:09:54;12.27;;;6.20;;
69334;SDS011;56477;52.742;15.242;2023-12-20T01:12:20;13.90;;;5.43;;
69334;SDS011;56477;52.742;15.242;2023-12-20T01:14:46;14.02;;;7.38;;
69334;SDS011;56477;52.742;15.242;2023-12-20T01:17:12;8.63;;;3.83;;
69334;SDS011;56477;52.742;15.242;2023-12-20T01:19:38;11.83;;;4.23;;
69334;SDS011;56477;52.742;15.242;2023-12-20T01:22:04;12.73;;;7.30;;
69334;SDS011;56477;52.742;15.242;2023-12-20T01:24:31;10.48;;;3.97;;
69334;SDS011;56477;52.742;15.242;2023-12-20T01:26:57;13.88;;;4.85;;
69334;SDS011;56477;52.742;15.242;2023-12-20T01:29:23;10.77;;;4.10;;
69334;SDS011;56477;52.742;15.242;2023-12-20T01:31:49;6.43;;;2.58;;
69334;SDS011;56477;52.742;15.242;2023-12-20T01:34:15;10.05;;;4.85;;
69334;SDS011;56477;52.742;15.242;2023-12-20T01:36:42;11.35;;;5.50;;
69334;SDS011;56477;52.742;15.242;2023-12-20T01:39:09;7.95;;;3.40;;
69334;SDS011;56477;52.742;15.242;2023-12-20T01:41:35;6.47;;;2.70;;
69334;SDS011;56477;52.742;15.242;2023-12-20T01:44:01;9.00;;;3.20;;
69334;SDS011;56477;52.742;15.242;2023-12-20T01:46:27;9.77;;;4.18;;
69334;SDS011;56477;52.742;15.242;2023-12-20T01:48:53;9.45;;;4.53;;
69334;SDS011;56477;52.742;15.242;2023-12-20T01:51:19;11.13;;;4.00;;
69334;SDS011;56477;52.742;15.242;2023-12-20T01:53:46;7.75;;;2.90;;
69334;SDS011;56477;52.742;15.242;2023-12-20T01:56:12;14.18;;;4.10;;
69334;SDS011;56477;52.742;15.242;2023-12-20T01:58:41;11.48;;;4.20;;
69334;SDS011;56477;52.742;15.242;2023-12-20T02:01:10;13.05;;;4.97;;
69334;SDS011;56477;52.742;15.242;2023-12-20T02:03:36;11.93;;;4.30;;
69334;SDS011;56477;52.742;15.242;2023-12-20T02:06:03;11.88;;;3.80;;
69334;SDS011;56477;52.742;15.242;2023-12-20T02:08:30;7.35;;;2.80;;
69334;SDS011;56477;52.742;15.242;2023-12-20T02:10:56;9.77;;;3.92;;
69334;SDS011;56477;52.742;15.242;2023-12-20T02:13:22;9.40;;;2.80;;
69334;SDS011;56477;52.742;15.242;2023-12-20T02:15:48;8.30;;;3.45;;
69334;SDS011;56477;52.742;15.242;2023-12-20T02:18:14;6.07;;;1.98;;
69334;SDS011;56477;52.742;15.242;2023-12-20T02:20:42;11.20;;;5.53;;
69334;SDS011;56477;52.742;15.242;2023-12-20T02:23:08;8.68;;;3.22;;
69334;SDS011;56477;52.742;15.242;2023-12-20T02:25:34;6.93;;;2.47;;
69334;SDS011;56477;52.742;15.242;2023-12-20T02:28:00;7.93;;;3.30;;
69334;SDS011;56477;52.742;15.242;2023-12-20T02:30:27;7.20;;;3.28;;
69334;SDS011;56477;52.742;15.242;2023-12-20T02:32:53;8.60;;;3.08;;
69334;SDS011;56477;52.742;15.242;2023-12-20T02:35:19;7.10;;;2.65;;
69334;SDS011;56477;52.742;15.242;2023-12-20T02:37:46;9.50;;;3.67;;
69334;SDS011;56477;52.742;15.242;2023-12-20T02:40:11;8.82;;;4.20;;
69334;SDS011;56477;52.742;15.242;2023-12-20T02:42:38;5.32;;;2.47;;
69334;SDS011;56477;52.742;15.242;2023-12-20T02:45:04;8.00;;;3.70;;
69334;SDS011;56477;52.742;15.242;2023-12-20T02:47:30;4.23;;;1.57;;
69334;SDS011;56477;52.742;15.242;2023-12-20T02:49:56;7.45;;;2.35;;
69334;SDS011;56477;52.742;15.242;2023-12-20T02:52:23;4.13;;;1.50;;
69334;SDS011;56477;52.742;15.242;2023-12-20T02:54:49;5.65;;;2.08;;
69334;SDS011;56477;52.742;15.242;2023-12-20T02:57:15;8.63;;;4.00;;
69334;SDS011;56477;52.742;15.242;2023-12-20T02:59:41;6.88;;;2.85;;
69334;SDS011;56477;52.742;15.242;2023-12-20T03:02:07;5.80;;;2.45;;
69334;SDS011;56477;52.742;15.242;2023-12-20T03:04:33;9.23;;;4.10;;
69334;SDS011;56477;52.742;15.242;2023-12-20T03:06:59;6.93;;;2.83;;
69334;SDS011;56477;52.742;15.242;2023-12-20T03:09:25;6.50;;;3.00;;
69334;SDS011;56477;52.742;15.242;2023-12-20T03:11:51;4.72;;;2.08;;
69334;SDS011;56477;52.742;15.242;2023-12-20T03:14:17;5.15;;;1.98;;
69334;SDS011;56477;52.742;15.242;2023-12-20T03:16:48;5.13;;;2.03;;
69334;SDS011;56477;52.742;15.242;2023-12-20T03:19:15;5.10;;;1.83;;
69334;SDS011;56477;52.742;15.242;2023-12-20T03:21:42;3.45;;;1.17;;
69334;SDS011;56477;52.742;15.242;2023-12-20T03:24:08;3.05;;;1.05;;
69334;SDS011;56477;52.742;15.242;2023-12-20T03:26:34;2.78;;;1.00;;
69334;SDS011;56477;52.742;15.242;2023-12-20T03:29:00;2.67;;;1.20;;
69334;SDS011;56477;52.742;15.242;2023-12-20T03:31:26;1.98;;;0.88;;
69334;SDS011;56477;52.742;15.242;2023-12-20T03:33:52;5.22;;;1.30;;
69334;SDS011;56477;52.742;15.242;2023-12-20T03:36:19;2.27;;;0.70;;
69334;SDS011;56477;52.742;15.242;2023-12-20T03:38:45;1.85;;;0.50;;
69334;SDS011;56477;52.742;15.242;2023-12-20T03:41:13;4.53;;;1.50;;
69334;SDS011;56477;52.742;15.242;2023-12-20T03:43:39;2.83;;;0.93;;
69334;SDS011;56477;52.742;15.242;2023-12-20T03:46:05;3.55;;;1.13;;
69334;SDS011;56477;52.742;15.242;2023-12-20T03:48:34;3.43;;;0.87;;
69334;SDS011;56477;52.742;15.242;2023-12-20T03:51:00;2.55;;;0.93;;
69334;SDS011;56477;52.742;15.242;2023-12-20T03:53:26;2.42;;;0.95;;
69334;SDS011;56477;52.742;15.242;2023-12-20T03:55:52;3.60;;;1.23;;
69334;SDS011;56477;52.742;15.242;2023-12-20T03:58:18;5.07;;;1.40;;
69334;SDS011;56477;52.742;15.242;2023-12-20T04:00:44;6.27;;;1.80;;
69334;SDS011;56477;52.742;15.242;2023-12-20T04:03:10;4.05;;;1.02;;
69334;SDS011;56477;52.742;15.242;2023-12-20T04:05:40;3.42;;;1.08;;
69334;SDS011;56477;52.742;15.242;2023-12-20T04:08:07;2.92;;;0.50;;
69334;SDS011;56477;52.742;15.242;2023-12-20T04:10:33;4.00;;;1.23;;
69334;SDS011;56477;52.742;15.242;2023-12-20T04:12:59;2.40;;;0.67;;
69334;SDS011;56477;52.742;15.242;2023-12-20T04:15:25;4.90;;;1.15;;
69334;SDS011;56477;52.742;15.242;2023-12-20T04:17:51;3.50;;;1.00;;
69334;SDS011;56477;52.742;15.242;2023-12-20T04:20:17;3.87;;;1.33;;
69334;SDS011;56477;52.742;15.242;2023-12-20T04:22:43;2.85;;;0.85;;
69334;SDS011;56477;52.742;15.242;2023-12-20T04:25:09;3.20;;;0.82;;
69334;SDS011;56477;52.742;15.242;2023-12-20T04:27:35;6.28;;;2.35;;
69334;SDS011;56477;52.742;15.242;2023-12-20T04:30:02;4.83;;;1.87;;
69334;SDS011;56477;52.742;15.242;2023-12-20T04:32:29;5.80;;;2.80;;
69334;SDS011;56477;52.742;15.242;2023-12-20T04:34:55;3.17;;;1.30;;
69334;SDS011;56477;52.742;15.242;2023-12-20T04:37:21;5.10;;;1.77;;
69334;SDS011;56477;52.742;15.242;2023-12-20T04:39:47;6.63;;;1.90;;
69334;SDS011;56477;52.742;15.242;2023-12-20T04:42:13;9.68;;;2.67;;
69334;SDS011;56477;52.742;15.242;2023-12-20T04:44:39;2.65;;;1.20;;
69334;SDS011;56477;52.742;15.242;2023-12-20T04:47:05;4.90;;;1.85;;
69334;SDS011;56477;52.742;15.242;2023-12-20T04:49:31;4.37;;;1.77;;
69334;SDS011;56477;52.742;15.242;2023-12-20T04:51:57;4.93;;;1.60;;
69334;SDS011;56477;52.742;15.242;2023-12-20T04:54:23;6.47;;;2.10;;
69334;SDS011;56477;52.742;15.242;2023-12-20T04:56:49;7.22;;;2.35;;
69334;SDS011;56477;52.742;15.242;2023-12-20T04:59:15;4.72;;;1.95;;
69334;SDS011;56477;52.742;15.242;2023-12-20T05:01:41;5.93;;;2.17;;
69334;SDS011;56477;52.742;15.242;2023-12-20T05:04:07;5.13;;;2.38;;
69334;SDS011;56477;52.742;15.242;2023-12-20T05:06:33;3.60;;;1.20;;
69334;SDS011;56477;52.742;15.242;2023-12-20T05:08:59;3.65;;;1.65;;
69334;SDS011;56477;52.742;15.242;2023-12-20T05:11:25;6.70;;;2.17;;
69334;SDS011;56477;52.742;15.242;2023-12-20T05:13:51;4.75;;;1.58;;
69334;SDS011;56477;52.742;15.242;2023-12-20T05:16:17;3.75;;;0.90;;
69334;SDS011;56477;52.742;15.242;2023-12-20T05:18:44;5.05;;;1.20;;
69334;SDS011;56477;52.742;15.242;2023-12-20T05:21:11;4.73;;;0.93;;
69334;SDS011;56477;52.742;15.242;2023-12-20T05:23:37;2.50;;;0.95;;
69334;SDS011;56477;52.742;15.242;2023-12-20T05:26:03;3.70;;;1.33;;
69334;SDS011;56477;52.742;15.242;2023-12-20T05:28:29;6.18;;;1.95;;
69334;SDS011;56477;52.742;15.242;2023-12-20T05:30:55;11.33;;;2.93;;
69334;SDS011;56477;52.742;15.242;2023-12-20T05:33:21;5.13;;;1.60;;
69334;SDS011;56477;52.742;15.242;2023-12-20T05:35:47;9.65;;;2.80;;
69334;SDS011;56477;52.742;15.242;2023-12-20T05:38:13;5.65;;;1.88;;
69334;SDS011;56477;52.742;15.242;2023-12-20T05:40:39;5.97;;;1.10;;
69334;SDS011;56477;52.742;15.242;2023-12-20T05:43:05;4.35;;;1.33;;
69334;SDS011;56477;52.742;15.242;2023-12-20T05:45:31;7.53;;;1.35;;
69334;SDS011;56477;52.742;15.242;2023-12-20T05:47:57;3.27;;;0.93;;
69334;SDS011;56477;52.742;15.242;2023-12-20T05:50:24;4.55;;;1.40;;
69334;SDS011;56477;52.742;15.242;2023-12-20T05:52:50;3.78;;;1.33;;
69334;SDS011;56477;52.742;15.242;2023-12-20T05:55:16;5.13;;;1.60;;
69334;SDS011;56477;52.742;15.242;2023-12-20T05:57:42;4.70;;;0.97;;
69334;SDS011;56477;52.742;15.242;2023-12-20T06:00:09;4.85;;;1.23;;
69334;SDS011;56477;52.742;15.242;2023-12-20T06:02:35;6.25;;;1.42;;
69334;SDS011;56477;52.742;15.242;2023-12-20T06:05:03;6.20;;;1.80;;
69334;SDS011;56477;52.742;15.242;2023-12-20T06:07:31;8.80;;;1.42;;
69334;SDS011;56477;52.742;15.242;2023-12-20T06:09:56;6.30;;;1.53;;
69334;SDS011;56477;52.742;15.242;2023-12-20T06:12:23;6.22;;;1.80;;
69334;SDS011;56477;52.742;15.242;2023-12-20T06:14:48;6.45;;;1.40;;
69334;SDS011;56477;52.742;15.242;2023-12-20T06:17:15;12.40;;;4.95;;
69334;SDS011;56477;52.742;15.242;2023-12-20T06:19:41;11.33;;;1.50;;
69334;SDS011;56477;52.742;15.242;2023-12-20T06:22:10;3.28;;;0.90;;
69334;SDS011;56477;52.742;15.242;2023-12-20T06:24:36;4.38;;;1.33;;
69334;SDS011;56477;52.742;15.242;2023-12-20T06:27:02;4.45;;;1.10;;
69334;SDS011;56477;52.742;15.242;2023-12-20T06:29:28;5.70;;;1.40;;
69334;SDS011;56477;52.742;15.242;2023-12-20T06:31:55;6.65;;;1.98;;
69334;SDS011;56477;52.742;15.242;2023-12-20T06:34:20;7.95;;;1.73;;
69334;SDS011;56477;52.742;15.242;2023-12-20T06:36:47;3.85;;;1.30;;
69334;SDS011;56477;52.742;15.242;2023-12-20T06:39:13;4.77;;;1.40;;
69334;SDS011;56477;52.742;15.242;2023-12-20T06:41:39;9.73;;;1.60;;
69334;SDS011;56477;52.742;15.242;2023-12-20T06:44:05;14.15;;;3.15;;
69334;SDS011;56477;52.742;15.242;2023-12-20T06:46:31;7.25;;;1.90;;
69334;SDS011;56477;52.742;15.242;2023-12-20T06:48:57;4.03;;;1.10;;
69334;SDS011;56477;52.742;15.242;2023-12-20T06:51:24;4.55;;;1.55;;
69334;SDS011;56477;52.742;15.242;2023-12-20T06:53:54;9.35;;;2.50;;
69334;SDS011;56477;52.742;15.242;2023-12-20T06:56:20;4.65;;;1.30;;
69334;SDS011;56477;52.742;15.242;2023-12-20T06:58:46;6.30;;;2.07;;
69334;SDS011;56477;52.742;15.242;2023-12-20T07:01:12;14.13;;;4.43;;
69334;SDS011;56477;52.742;15.242;2023-12-20T07:03:39;10.43;;;2.53;;
69334;SDS011;56477;52.742;15.242;2023-12-20T07:06:08;5.72;;;1.67;;
69334;SDS011;56477;52.742;15.242;2023-12-20T07:08:34;6.25;;;1.42;;
69334;SDS011;56477;52.742;15.242;2023-12-20T07:11:00;4.83;;;1.87;;
69334;SDS011;56477;52.742;15.242;2023-12-20T07:13:26;9.07;;;2.53;;
69334;SDS011;56477;52.742;15.242;2023-12-20T07:15:52;8.32;;;1.08;;
69334;SDS011;56477;52.742;15.242;2023-12-20T07:18:23;3.13;;;1.35;;
69334;SDS011;56477;52.742;15.242;2023-12-20T07:20:50;6.30;;;1.60;;
69334;SDS011;56477;52.742;15.242;2023-12-20T07:23:16;7.03;;;2.20;;
69334;SDS011;56477;52.742;15.242;2023-12-20T07:25:42;4.30;;;1.20;;
69334;SDS011;56477;52.742;15.242;2023-12-20T07:28:07;2.93;;;1.13;;
69334;SDS011;56477;52.742;15.242;2023-12-20T07:30:34;6.43;;;2.03;;
69334;SDS011;56477;52.742;15.242;2023-12-20T07:32:59;6.60;;;1.48;;
69334;SDS011;56477;52.742;15.242;2023-12-20T07:35:26;7.15;;;1.65;;
69334;SDS011;56477;52.742;15.242;2023-12-20T07:37:52;5.50;;;1.23;;
69334;SDS011;56477;52.742;15.242;2023-12-20T07:40:18;9.23;;;2.08;;
69334;SDS011;56477;52.742;15.242;2023-12-20T07:42:44;5.88;;;1.40;;
69334;SDS011;56477;52.742;15.242;2023-12-20T07:45:11;7.38;;;2.28;;
69334;SDS011;56477;52.742;15.242;2023-12-20T07:47:37;8.23;;;2.37;;
69334;SDS011;56477;52.742;15.242;2023-12-20T07:50:03;6.47;;;1.38;;
69334;SDS011;56477;52.742;15.242;2023-12-20T07:52:30;7.57;;;2.00;;
69334;SDS011;56477;52.742;15.242;2023-12-20T07:54:56;10.15;;;1.83;;
69334;SDS011;56477;52.742;15.242;2023-12-20T07:57:22;6.90;;;1.87;;
69334;SDS011;56477;52.742;15.242;2023-12-20T07:59:49;10.23;;;2.20;;
69334;SDS011;56477;52.742;15.242;2023-12-20T08:02:15;15.82;;;1.52;;
69334;SDS011;56477;52.742;15.242;2023-12-20T08:04:41;4.93;;;1.38;;
69334;SDS011;56477;52.742;15.242;2023-12-20T08:07:07;11.10;;;2.20;;
69334;SDS011;56477;52.742;15.242;2023-12-20T08:09:33;5.80;;;1.53;;
69334;SDS011;56477;52.742;15.242;2023-12-20T08:12:02;6.10;;;1.80;;
69334;SDS011;56477;52.742;15.242;2023-12-20T08:14:28;14.13;;;2.75;;
69334;SDS011;56477;52.742;15.242;2023-12-20T08:16:54;8.50;;;1.90;;
69334;SDS011;56477;52.742;15.242;2023-12-20T08:19:20;14.05;;;3.70;;
69334;SDS011;56477;52.742;15.242;2023-12-20T08:21:46;7.57;;;2.57;;
69334;SDS011;56477;52.742;15.242;2023-12-20T08:24:12;9.95;;;3.60;;
69334;SDS011;56477;52.742;15.242;2023-12-20T08:26:38;12.43;;;2.97;;
69334;SDS011;56477;52.742;15.242;2023-12-20T08:29:04;11.77;;;3.00;;
69334;SDS011;56477;52.742;15.242;2023-12-20T08:31:30;8.47;;;2.00;;
69334;SDS011;56477;52.742;15.242;2023-12-20T08:33:56;14.48;;;3.47;;
69334;SDS011;56477;52.742;15.242;2023-12-20T08:36:22;7.28;;;2.17;;
69334;SDS011;56477;52.742;15.242;2023-12-20T08:38:49;7.93;;;2.67;;
69334;SDS011;56477;52.742;15.242;2023-12-20T08:41:16;13.67;;;3.43;;
69334;SDS011;56477;52.742;15.242;2023-12-20T08:43:43;8.68;;;2.20;;
69334;SDS011;56477;52.742;15.242;2023-12-20T08:46:09;8.13;;;3.10;;
69334;SDS011;56477;52.742;15.242;2023-12-20T08:48:35;6.40;;;2.25;;
69334;SDS011;56477;52.742;15.242;2023-12-20T08:51:01;10.48;;;3.58;;
69334;SDS011;56477;52.742;15.242;2023-12-20T08:53:27;7.13;;;3.13;;
69334;SDS011;56477;52.742;15.242;2023-12-20T08:55:53;7.57;;;2.65;;
69334;SDS011;56477;52.742;15.242;2023-12-20T08:58:20;6.90;;;2.00;;
69334;SDS011;56477;52.742;15.242;2023-12-20T09:00:45;11.50;;;4.25;;
69334;SDS011;56477;52.742;15.242;2023-12-20T09:03:12;10.77;;;3.50;;
69334;SDS011;56477;52.742;15.242;2023-12-20T09:05:37;10.70;;;3.60;;
69334;SDS011;56477;52.742;15.242;2023-12-20T09:08:04;13.57;;;3.70;;
69334;SDS011;56477;52.742;15.242;2023-12-20T09:10:30;14.38;;;3.90;;
69334;SDS011;56477;52.742;15.242;2023-12-20T09:12:56;15.73;;;5.10;;
69334;SDS011;56477;52.742;15.242;2023-12-20T09:15:23;21.30;;;8.50;;
69334;SDS011;56477;52.742;15.242;2023-12-20T09:17:51;11.00;;;4.18;;
69334;SDS011;56477;52.742;15.242;2023-12-20T09:20:17;14.07;;;4.75;;
69334;SDS011;56477;52.742;15.242;2023-12-20T09:22:43;9.30;;;3.63;;
69334;SDS011;56477;52.742;15.242;2023-12-20T09:25:09;7.10;;;3.13;;
69334;SDS011;56477;52.742;15.242;2023-12-20T09:27:37;11.80;;;3.45;;
69334;SDS011;56477;52.742;15.242;2023-12-20T09:30:03;11.75;;;3.17;;
69334;SDS011;56477;52.742;15.242;2023-12-20T09:32:31;11.98;;;4.15;;
69334;SDS011;56477;52.742;15.242;2023-12-20T09:34:57;13.90;;;4.53;;
69334;SDS011;56477;52.742;15.242;2023-12-20T09:37:26;13.97;;;4.83;;
69334;SDS011;56477;52.742;15.242;2023-12-20T09:39:53;9.32;;;2.03;;
69334;SDS011;56477;52.742;15.242;2023-12-20T09:42:44;10.02;;;2.40;;
69334;SDS011;56477;52.742;15.242;2023-12-20T09:45:15;12.18;;;3.85;;
69334;SDS011;56477;52.742;15.242;2023-12-20T09:47:44;11.98;;;3.85;;
69334;SDS011;56477;52.742;15.242;2023-12-20T09:50:10;14.97;;;2.57;;
69334;SDS011;56477;52.742;15.242;2023-12-20T09:52:37;5.20;;;2.00;;
69334;SDS011;56477;52.742;15.242;2023-12-20T09:55:05;9.40;;;3.58;;
69334;SDS011;56477;52.742;15.242;2023-12-20T09:57:33;8.00;;;2.38;;
69334;SDS011;56477;52.742;15.242;2023-12-20T09:59:59;12.45;;;3.60;;
69334;SDS011;56477;52.742;15.242;2023-12-20T10:02:25;9.30;;;3.23;;
69334;SDS011;56477;52.742;15.242;2023-12-20T10:04:53;10.30;;;3.95;;
69334;SDS011;56477;52.742;15.242;2023-12-20T10:07:20;6.97;;;1.95;;
69334;SDS011;56477;52.742;15.242;2023-12-20T10:09:47;11.93;;;3.22;;
69334;SDS011;56477;52.742;15.242;2023-12-20T10:12:14;14.48;;;5.32;;
69334;SDS011;56477;52.742;15.242;2023-12-20T10:14:40;10.70;;;3.60;;
69334;SDS011;56477;52.742;15.242;2023-12-20T10:17:06;9.85;;;4.70;;
69334;SDS011;56477;52.742;15.242;2023-12-20T10:19:32;11.77;;;3.72;;
69334;SDS011;56477;52.742;15.242;2023-12-20T10:21:59;17.17;;;5.82;;
69334;SDS011;56477;52.742;15.242;2023-12-20T10:24:25;13.43;;;2.90;;
69334;SDS011;56477;52.742;15.242;2023-12-20T10:27:01;12.98;;;3.47;;
69334;SDS011;56477;52.742;15.242;2023-12-20T10:29:32;9.45;;;2.50;;
69334;SDS011;56477;52.742;15.242;2023-12-20T10:31:59;12.07;;;2.97;;
69334;SDS011;56477;52.742;15.242;2023-12-20T10:34:25;10.85;;;3.38;;
69334;SDS011;56477;52.742;15.242;2023-12-20T10:36:51;9.37;;;3.53;;
69334;SDS011;56477;52.742;15.242;2023-12-20T10:39:17;11.70;;;4.28;;
69334;SDS011;56477;52.742;15.242;2023-12-20T10:41:45;7.88;;;2.85;;
69334;SDS011;56477;52.742;15.242;2023-12-20T10:44:12;17.30;;;3.45;;
69334;SDS011;56477;52.742;15.242;2023-12-20T10:46:39;10.30;;;3.00;;
69334;SDS011;56477;52.742;15.242;2023-12-20T10:49:06;9.67;;;2.23;;
69334;SDS011;56477;52.742;15.242;2023-12-20T10:51:34;10.77;;;3.13;;
69334;SDS011;56477;52.742;15.242;2023-12-20T10:54:00;8.77;;;2.05;;
69334;SDS011;56477;52.742;15.242;2023-12-20T10:56:26;9.10;;;2.42;;
69334;SDS011;56477;52.742;15.242;2023-12-20T10:58:57;7.70;;;1.80;;
69334;SDS011;56477;52.742;15.242;2023-12-20T11:01:30;7.90;;;1.73;;
69334;SDS011;56477;52.742;15.242;2023-12-20T11:03:57;14.43;;;2.85;;
69334;SDS011;56477;52.742;15.242;2023-12-20T11:14:46;11.43;;;4.07;;
69334;SDS011;56477;52.742;15.242;2023-12-20T11:17:13;12.20;;;3.45;;
69334;SDS011;56477;52.742;15.242;2023-12-20T11:22:24;5.97;;;2.08;;
69334;SDS011;56477;52.742;15.242;2023-12-20T11:24:51;11.25;;;4.30;;
69334;SDS011;56477;52.742;15.242;2023-12-20T11:27:18;12.23;;;2.70;;
69334;SDS011;56477;52.742;15.242;2023-12-20T11:29:50;8.75;;;1.83;;
69334;SDS011;56477;52.742;15.242;2023-12-20T11:34:54;6.15;;;2.45;;
69334;SDS011;56477;52.742;15.242;2023-12-20T11:37:21;7.55;;;2.55;;
69334;SDS011;56477;52.742;15.242;2023-12-20T11:39:56;9.37;;;2.63;;
69334;SDS011;56477;52.742;15.242;2023-12-20T11:42:38;9.57;;;3.33;;
69334;SDS011;56477;52.742;15.242;2023-12-20T11:45:08;11.13;;;2.75;;
69334;SDS011;56477;52.742;15.242;2023-12-20T11:47:35;7.25;;;2.08;;
69334;SDS011;56477;52.742;15.242;2023-12-20T11:50:01;6.53;;;1.85;;
69334;SDS011;56477;52.742;15.242;2023-12-20T11:52:29;10.13;;;3.73;;
69334;SDS011;56477;52.742;15.242;2023-12-20T11:54:56;9.77;;;2.38;;
69334;SDS011;56477;52.742;15.242;2023-12-20T11:57:23;10.57;;;2.85;;
69334;SDS011;56477;52.742;15.242;2023-12-20T11:59:49;11.50;;;2.70;;
69334;SDS011;56477;52.742;15.242;2023-12-20T12:02:15;9.98;;;2.13;;
69334;SDS011;56477;52.742;15.242;2023-12-20T12:04:41;15.13;;;3.93;;
69334;SDS011;56477;52.742;15.242;2023-12-20T12:07:08;10.20;;;2.05;;
69334;SDS011;56477;52.742;15.242;2023-12-20T12:09:36;6.07;;;1.83;;
69334;SDS011;56477;52.742;15.242;2023-12-20T12:12:02;12.57;;;2.63;;
69334;SDS011;56477;52.742;15.242;2023-12-20T12:14:29;7.88;;;2.80;;
69334;SDS011;56477;52.742;15.242;2023-12-20T12:16:55;13.67;;;2.83;;
69334;SDS011;56477;52.742;15.242;2023-12-20T12:19:24;12.90;;;2.90;;
69334;SDS011;56477;52.742;15.242;2023-12-20T12:22:03;7.20;;;1.13;;
69334;SDS011;56477;52.742;15.242;2023-12-20T12:24:32;8.63;;;1.83;;
69334;SDS011;56477;52.742;15.242;2023-12-20T12:26:58;4.30;;;1.77;;
69334;SDS011;56477;52.742;15.242;2023-12-20T12:29:24;6.50;;;1.67;;
69334;SDS011;56477;52.742;15.242;2023-12-20T12:31:51;5.28;;;2.50;;
69334;SDS011;56477;52.742;15.242;2023-12-20T12:34:17;11.18;;;2.95;;
69334;SDS011;56477;52.742;15.242;2023-12-20T12:36:43;4.68;;;1.38;;
69334;SDS011;56477;52.742;15.242;2023-12-20T12:39:12;13.30;;;2.70;;
69334;SDS011;56477;52.742;15.242;2023-12-20T12:41:41;11.00;;;1.90;;
69334;SDS011;56477;52.742;15.242;2023-12-20T12:44:07;10.27;;;2.25;;
69334;SDS011;56477;52.742;15.242;2023-12-20T12:46:33;8.20;;;2.05;;
69334;SDS011;56477;52.742;15.242;2023-12-20T12:49:02;9.23;;;2.17;;
69334;SDS011;56477;52.742;15.242;2023-12-20T12:51:38;14.27;;;2.35;;
69334;SDS011;56477;52.742;15.242;2023-12-20T12:54:04;7.20;;;1.95;;
69334;SDS011;56477;52.742;15.242;2023-12-20T12:56:30;14.25;;;2.88;;
69334;SDS011;56477;52.742;15.242;2023-12-20T12:58:56;10.52;;;3.40;;
69334;SDS011;56477;52.742;15.242;2023-12-20T13:01:23;3.00;;;1.17;;
69334;SDS011;56477;52.742;15.242;2023-12-20T13:03:49;5.80;;;1.65;;
69334;SDS011;56477;52.742;15.242;2023-12-20T13:06:15;6.07;;;2.13;;
69334;SDS011;56477;52.742;15.242;2023-12-20T13:08:41;9.38;;;2.60;;
69334;SDS011;56477;52.742;15.242;2023-12-20T13:11:07;11.55;;;1.80;;
69334;SDS011;56477;52.742;15.242;2023-12-20T13:13:33;7.57;;;2.33;;
69334;SDS011;56477;52.742;15.242;2023-12-20T13:16:00;11.18;;;2.40;;
69334;SDS011;56477;52.742;15.242;2023-12-20T13:18:26;6.60;;;1.40;;
69334;SDS011;56477;52.742;15.242;2023-12-20T13:20:53;9.20;;;2.42;;
69334;SDS011;56477;52.742;15.242;2023-12-20T13:23:19;6.88;;;1.63;;
69334;SDS011;56477;52.742;15.242;2023-12-20T13:25:45;8.17;;;1.50;;
69334;SDS011;56477;52.742;15.242;2023-12-20T13:28:12;5.85;;;1.58;;
69334;SDS011;56477;52.742;15.242;2023-12-20T13:30:38;7.35;;;2.20;;
69334;SDS011;56477;52.742;15.242;2023-12-20T13:33:05;7.25;;;1.85;;
69334;SDS011;56477;52.742;15.242;2023-12-20T13:35:32;9.70;;;2.95;;
69334;SDS011;56477;52.742;15.242;2023-12-20T13:37:59;3.07;;;0.80;;
69334;SDS011;56477;52.742;15.242;2023-12-20T13:40:26;6.28;;;2.15;;
69334;SDS011;56477;52.742;15.242;2023-12-20T13:42:53;7.28;;;1.50;;
69334;SDS011;56477;52.742;15.242;2023-12-20T13:45:20;12.30;;;3.13;;
69334;SDS011;56477;52.742;15.242;2023-12-20T13:47:46;8.00;;;2.27;;
69334;SDS011;56477;52.742;15.242;2023-12-20T13:50:13;7.20;;;2.30;;
69334;SDS011;56477;52.742;15.242;2023-12-20T13:52:39;10.93;;;2.92;;
69334;SDS011;56477;52.742;15.242;2023-12-20T13:55:05;7.55;;;1.70;;
69334;SDS011;56477;52.742;15.242;2023-12-20T13:57:33;13.47;;;3.63;;
69334;SDS011;56477;52.742;15.242;2023-12-20T13:59:59;12.18;;;3.88;;
69334;SDS011;56477;52.742;15.242;2023-12-20T14:02:28;7.82;;;2.63;;
69334;SDS011;56477;52.742;15.242;2023-12-20T14:04:54;11.23;;;3.70;;
69334;SDS011;56477;52.742;15.242;2023-12-20T14:07:20;10.23;;;3.53;;
69334;SDS011;56477;52.742;15.242;2023-12-20T14:09:46;9.70;;;2.80;;
69334;SDS011;56477;52.742;15.242;2023-12-20T14:12:13;11.43;;;3.55;;
69334;SDS011;56477;52.742;15.242;2023-12-20T14:14:39;7.68;;;1.77;;
69334;SDS011;56477;52.742;15.242;2023-12-20T14:17:05;8.80;;;1.98;;
69334;SDS011;56477;52.742;15.242;2023-12-20T14:19:35;7.18;;;2.53;;
69334;SDS011;56477;52.742;15.242;2023-12-20T14:22:01;4.63;;;1.53;;
69334;SDS011;56477;52.742;15.242;2023-12-20T14:24:28;3.05;;;0.95;;
69334;SDS011;56477;52.742;15.242;2023-12-20T14:26:54;5.13;;;1.60;;
69334;SDS011;56477;52.742;15.242;2023-12-20T14:29:20;5.15;;;1.42;;
69334;SDS011;56477;52.742;15.242;2023-12-20T14:31:46;4.47;;;1.50;;
69334;SDS011;56477;52.742;15.242;2023-12-20T14:34:12;3.00;;;0.63;;
69334;SDS011;56477;52.742;15.242;2023-12-20T14:36:38;3.92;;;1.75;;
69334;SDS011;56477;52.742;15.242;2023-12-20T14:39:04;5.38;;;1.42;;
69334;SDS011;56477;52.742;15.242;2023-12-20T14:41:30;3.57;;;0.80;;